Time;durP1;ratioP1;P1;durP2;ratioP2;P2;SDS_P1;SDS_P2;PMS_P1;PMS_P2;Temp;Humidity;BMP_temperature;BMP_pressure;BME280_temperature;BME280_humidity;BME280_pressure;Samples;Min_cycle;Max_cycle;Signal;HPM_P1;HPM_P2
2022/01/26 00:00:56;;;;;;;17.38;7.82;;;2.80;99.90;;;;;;5010387;28;20051;-80
2022/01/26 00:06:14;;;;;;;22.85;11.00;;;2.80;99.90;;;;;;4977147;28;20118;-82
2022/01/26 00:08:40;;;;;;;17.13;9.57;;;2.80;99.90;;;;;;5053051;28;20074;-78
2022/01/26 00:11:06;;;;;;;30.52;11.20;;;2.90;99.90;;;;;;5052947;28;20082;-79
2022/01/26 00:13:32;;;;;;;28.52;9.20;;;2.80;99.90;;;;;;4963312;28;20080;-83
2022/01/26 00:16:01;;;;;;;25.88;8.10;;;2.80;99.90;;;;;;4969145;28;20047;-80
2022/01/26 00:18:31;;;;;;;32.03;13.18;;;2.80;99.90;;;;;;4965697;28;20055;-78
2022/01/26 00:21:05;;;;;;;23.58;10.85;;;2.80;99.90;;;;;;4942011;28;20104;-79
2022/01/26 00:24:06;;;;;;;28.80;9.52;;;2.80;99.90;;;;;;4962138;28;20108;-79
2022/01/26 00:29:11;;;;;;;20.77;10.27;;;2.80;99.90;;;;;;5000889;28;20138;-80
2022/01/26 00:39:59;;;;;;;33.75;9.90;;;2.80;99.90;;;;;;4967060;28;20655;-78
2022/01/26 00:42:28;;;;;;;31.10;10.07;;;2.80;99.90;;;;;;4980214;28;20394;-78
2022/01/26 00:44:54;;;;;;;24.05;8.88;;;2.80;99.90;;;;;;4968577;28;20039;-80
2022/01/26 00:47:19;;;;;;;18.88;9.65;;;2.80;99.90;;;;;;4950904;28;20499;-80
2022/01/26 00:49:45;;;;;;;23.48;11.50;;;2.90;99.90;;;;;;4957674;28;20050;-78
2022/01/26 00:52:14;;;;;;;19.50;9.63;;;2.80;99.90;;;;;;4968750;28;20054;-79
2022/01/26 00:54:40;;;;;;;27.02;12.35;;;2.80;99.90;;;;;;4991350;28;20053;-78
2022/01/26 00:57:06;;;;;;;35.83;13.07;;;2.80;99.90;;;;;;4969498;28;20035;-81
2022/01/26 00:59:32;;;;;;;24.67;8.85;;;2.80;99.90;;;;;;4968177;28;20125;-81
2022/01/26 01:01:58;;;;;;;21.25;10.10;;;2.80;99.90;;;;;;4960491;28;20122;-79
2022/01/26 01:04:24;;;;;;;36.13;13.52;;;2.80;99.90;;;;;;4984194;28;20097;-81
2022/01/26 01:06:56;;;;;;;36.58;13.60;;;2.80;99.90;;;;;;5053278;28;20039;-80
2022/01/26 01:09:23;;;;;;;14.85;8.48;;;2.80;99.90;;;;;;4984591;28;20497;-82
2022/01/26 01:11:55;;;;;;;31.17;9.45;;;2.80;99.90;;;;;;5050061;28;20051;-81
2022/01/26 01:14:21;;;;;;;27.10;12.02;;;2.80;99.90;;;;;;5008950;28;20043;-78
2022/01/26 01:16:47;;;;;;;;;;;2.80;99.90;;;;;;5053039;28;20164;-82
2022/01/26 01:19:30;;;;;;;16.92;9.88;;;2.80;99.90;;;;;;5052480;28;20014;-80
2022/01/26 01:24:57;;;;;;;25.50;9.65;;;2.80;99.90;;;;;;5000685;28;20122;-80
2022/01/26 01:30:23;;;;;;;23.63;10.65;;;2.80;99.90;;;;;;4969512;28;20038;-81
2022/01/26 01:33:03;;;;;;;24.08;10.68;;;2.70;99.90;;;;;;5051954;28;20054;-79
2022/01/26 01:35:31;;;;;;;19.77;11.15;;;2.70;99.90;;;;;;4957373;28;20038;-79
2022/01/26 01:37:57;;;;;;;24.50;11.43;;;2.70;99.90;;;;;;4970492;28;20042;-81
2022/01/26 01:40:22;;;;;;;;;;;2.90;99.90;;;;;;5052546;28;20046;-78
2022/01/26 01:42:48;;;;;;;30.30;11.85;;;2.70;99.90;;;;;;4966450;28;19922;-77
2022/01/26 01:45:14;;;;;;;29.85;14.25;;;2.70;99.90;;;;;;4968393;28;20064;-78
2022/01/26 01:47:39;;;;;;;23.85;10.00;;;2.70;99.90;;;;;;4969648;28;20399;-81
2022/01/26 01:50:12;;;;;;;18.02;9.90;;;2.70;99.90;;;;;;4972756;28;20074;-80
2022/01/26 01:52:38;;;;;;;26.67;12.73;;;2.70;99.90;;;;;;4983634;28;20125;-82
2022/01/26 01:55:05;;;;;;;34.15;13.60;;;2.70;99.90;;;;;;4981391;28;20057;-82
2022/01/26 01:57:32;;;;;;;28.70;11.52;;;2.60;99.90;;;;;;4973660;28;20557;-83
2022/01/26 01:59:58;;;;;;;19.38;9.20;;;2.70;99.90;;;;;;4999213;28;20075;-82
2022/01/26 02:02:24;;;;;;;23.15;8.60;;;2.70;99.90;;;;;;4970301;28;20066;-79
2022/01/26 02:04:49;;;;;;;23.83;10.52;;;2.60;99.90;;;;;;4965282;28;20516;-79
2022/01/26 02:07:15;;;;;;;26.52;9.52;;;2.70;99.90;;;;;;4957866;28;20039;-79
2022/01/26 02:09:41;;;;;;;16.25;10.15;;;2.70;99.90;;;;;;4967826;28;20394;-79
2022/01/26 02:12:20;;;;;;;37.97;12.75;;;2.70;99.90;;;;;;4986792;28;20034;-79
2022/01/26 02:14:52;;;;;;;22.48;9.75;;;2.70;99.90;;;;;;4990915;28;20058;-80
2022/01/26 02:17:49;;;;;;;28.00;10.35;;;2.70;99.90;;;;;;4993212;28;20122;-80
2022/01/26 02:20:46;;;;;;;17.63;9.38;;;2.70;99.90;;;;;;4963890;28;20051;-83
2022/01/26 02:55:46;;;;;;;26.80;11.55;;;2.70;99.90;;;;;;5054711;28;20503;-78
2022/01/26 03:03:34;;;;;;;22.90;9.77;;;2.70;99.90;;;;;;4988919;28;20043;-80
2022/01/26 03:06:06;;;;;;;21.50;8.93;;;2.70;99.90;;;;;;5034525;28;20042;-80
2022/01/26 03:08:39;;;;;;;27.20;10.63;;;2.70;99.90;;;;;;4971637;28;20051;-83
2022/01/26 03:11:08;;;;;;;26.95;12.70;;;2.70;99.90;;;;;;4971285;28;20121;-78
2022/01/26 03:13:38;;;;;;;31.65;12.57;;;2.70;99.90;;;;;;4974037;28;20497;-81
2022/01/26 03:16:15;;;;;;;30.58;10.15;;;2.70;99.90;;;;;;4978747;28;20038;-83
2022/01/26 03:21:13;;;;;;;23.67;9.48;;;2.60;99.90;;;;;;5000866;28;20530;-79
2022/01/26 03:34:11;;;;;;;28.75;12.82;;;2.60;99.90;;;;;;5032755;28;20062;-79
2022/01/26 03:36:54;;;;;;;22.00;10.05;;;2.70;99.90;;;;;;5001878;28;20407;-82
2022/01/26 03:39:23;;;;;;;20.38;10.77;;;2.70;99.90;;;;;;4969378;28;20074;-79
2022/01/26 03:41:57;;;;;;;23.73;12.18;;;2.60;99.90;;;;;;5000442;28;20054;-82
2022/01/26 03:44:23;;;;;;;27.67;11.15;;;2.60;99.90;;;;;;4966752;28;20118;-80
2022/01/26 03:46:51;;;;;;;21.45;8.85;;;3.00;99.90;;;;;;4969322;28;20080;-79
2022/01/26 03:49:17;;;;;;;22.45;12.52;;;2.80;99.90;;;;;;4953977;28;20038;-78
2022/01/26 03:51:43;;;;;;;24.25;9.48;;;2.70;99.90;;;;;;4952715;28;20740;-77
2022/01/26 03:54:11;;;;;;;17.98;10.23;;;2.60;99.90;;;;;;4969547;28;20047;-79
2022/01/26 03:56:38;;;;;;;26.45;11.43;;;2.60;99.90;;;;;;5052937;28;20050;-81
2022/01/26 03:59:05;;;;;;;18.05;8.70;;;2.60;99.90;;;;;;4953467;28;20078;-79
2022/01/26 04:01:31;;;;;;;25.80;11.30;;;2.60;99.90;;;;;;4963129;28;20055;-77
2022/01/26 04:03:57;;;;;;;;;;;2.60;99.90;;;;;;5054128;28;20092;-82
2022/01/26 04:06:23;;;;;;;27.98;13.02;;;2.70;99.90;;;;;;4983225;28;20330;-78
2022/01/26 04:08:49;;;;;;;22.25;9.93;;;2.70;99.90;;;;;;4955380;28;20042;-81
2022/01/26 04:13:44;;;;;;;20.15;12.05;;;2.60;99.90;;;;;;4969649;28;20054;-81
2022/01/26 04:16:10;;;;;;;27.58;9.75;;;2.60;99.90;;;;;;4996508;28;20031;-79
2022/01/26 04:18:38;;;;;;;15.70;9.43;;;2.60;99.90;;;;;;4963761;28;20061;-79
2022/01/26 04:21:22;;;;;;;19.58;8.75;;;2.60;99.90;;;;;;4949516;28;20408;-78
2022/01/26 04:23:54;;;;;;;20.95;10.52;;;2.60;99.90;;;;;;4965605;28;20572;-80
2022/01/26 04:26:25;;;;;;;23.85;9.32;;;2.60;99.90;;;;;;5052313;28;20050;-81
2022/01/26 04:28:57;;;;;;;24.55;10.07;;;2.60;99.90;;;;;;4963065;28;20055;-81
2022/01/26 04:31:23;;;;;;;19.75;9.32;;;2.60;99.90;;;;;;4952165;28;20046;-77
2022/01/26 04:33:50;;;;;;;28.70;13.25;;;2.60;99.90;;;;;;4994599;28;20636;-82
2022/01/26 04:36:27;;;;;;;24.48;9.38;;;2.60;99.90;;;;;;4987826;28;20104;-82
2022/01/26 04:38:56;;;;;;;15.68;7.60;;;2.70;99.90;;;;;;4992122;28;20042;-81
2022/01/26 04:43:51;;;;;;;20.42;9.32;;;2.50;99.90;;;;;;4945494;28;20496;-80
2022/01/26 04:46:17;;;;;;;15.70;7.75;;;2.60;99.90;;;;;;4962515;28;20055;-81
2022/01/26 04:48:43;;;;;;;36.80;10.45;;;2.90;99.90;;;;;;4961231;28;20039;-80
2022/01/26 04:51:08;;;;;;;22.73;11.40;;;2.50;99.90;;;;;;4993607;28;20043;-78
2022/01/26 04:53:34;;;;;;;21.13;8.30;;;2.60;99.90;;;;;;4957579;28;20111;-79
2022/01/26 04:56:00;;;;;;;12.82;7.90;;;2.50;99.90;;;;;;4981561;28;20065;-81
2022/01/26 04:58:25;;;;;;;17.70;9.05;;;2.50;99.90;;;;;;4949569;28;20043;-81
2022/01/26 05:00:51;;;;;;;21.48;9.98;;;2.50;99.90;;;;;;5048960;28;20101;-79
2022/01/26 05:03:17;;;;;;;19.65;10.63;;;2.50;99.90;;;;;;4962574;28;20043;-78
2022/01/26 05:05:43;;;;;;;17.30;8.40;;;2.50;99.90;;;;;;5031482;28;20067;-78
2022/01/26 05:08:08;;;;;;;21.55;9.63;;;2.50;99.90;;;;;;4965214;28;20047;-83
2022/01/26 05:10:37;;;;;;;20.52;9.70;;;2.50;99.90;;;;;;5048664;28;20065;-80
2022/01/26 05:13:02;;;;;;;22.52;9.55;;;2.50;99.90;;;;;;4976181;28;20038;-81
2022/01/26 05:15:28;;;;;;;12.05;8.52;;;2.50;99.90;;;;;;5052261;28;20503;-79
2022/01/26 05:17:54;;;;;;;18.15;9.00;;;2.50;99.90;;;;;;4967674;28;20046;-82
2022/01/26 05:20:19;;;;;;;20.00;9.70;;;2.50;99.90;;;;;;4969454;28;20043;-81
2022/01/26 05:22:45;;;;;;;25.95;7.68;;;2.50;99.90;;;;;;4971580;28;20039;-82
2022/01/26 05:25:12;;;;;;;23.13;9.05;;;2.50;99.90;;;;;;4969610;28;20047;-79
2022/01/26 05:27:38;;;;;;;21.65;9.95;;;2.50;99.90;;;;;;5003615;28;20404;-80
2022/01/26 05:30:07;;;;;;;15.73;7.05;;;2.50;99.90;;;;;;4995080;28;20146;-78
2022/01/26 05:32:33;;;;;;;18.85;8.05;;;2.50;99.90;;;;;;4993312;28;20052;-83
2022/01/26 05:34:58;;;;;;;23.50;9.38;;;2.50;99.90;;;;;;4983966;28;20395;-83
2022/01/26 05:37:24;;;;;;;15.23;9.50;;;2.60;99.90;;;;;;5004147;28;20050;-83
2022/01/26 05:39:50;;;;;;;18.60;9.93;;;2.50;99.90;;;;;;4953854;28;20038;-78
2022/01/26 05:42:17;;;;;;;20.98;10.02;;;2.50;99.90;;;;;;4952386;28;20047;-82
2022/01/26 05:44:44;;;;;;;13.57;7.72;;;2.40;99.90;;;;;;4970904;28;20035;-80
2022/01/26 05:47:15;;;;;;;22.00;7.63;;;2.50;99.90;;;;;;4966032;28;20043;-78
2022/01/26 05:49:41;;;;;;;30.85;10.02;;;2.90;99.90;;;;;;4953390;28;20541;-83
2022/01/26 05:52:07;;;;;;;18.40;8.57;;;2.50;99.90;;;;;;4977190;28;20114;-81
2022/01/26 05:54:32;;;;;;;15.75;7.70;;;2.50;99.90;;;;;;4967750;28;20184;-80
2022/01/26 05:56:58;;;;;;;20.58;9.15;;;2.50;99.90;;;;;;4970429;28;20049;-78
2022/01/26 05:59:24;;;;;;;27.63;11.35;;;2.40;99.90;;;;;;4972178;28;20112;-77
2022/01/26 06:01:50;;;;;;;15.32;7.78;;;2.40;99.90;;;;;;4978128;28;20074;-80
2022/01/26 06:04:18;;;;;;;24.65;8.60;;;2.40;99.90;;;;;;5055626;28;20102;-80
2022/01/26 06:06:44;;;;;;;12.35;7.88;;;2.40;99.90;;;;;;4972116;28;20031;-82
2022/01/26 06:09:10;;;;;;;26.05;10.98;;;2.40;99.90;;;;;;4970968;28;20530;-81
2022/01/26 06:11:36;;;;;;;15.77;8.23;;;2.40;99.90;;;;;;4971835;28;20050;-80
2022/01/26 06:14:01;;;;;;;18.70;7.38;;;2.40;99.90;;;;;;4971661;28;20047;-82
2022/01/26 06:16:27;;;;;;;23.25;9.23;;;2.40;99.90;;;;;;4970994;28;20053;-79
2022/01/26 06:18:53;;;;;;;23.35;11.18;;;2.50;99.90;;;;;;5055131;28;20130;-79
2022/01/26 06:21:18;;;;;;;27.23;9.65;;;2.40;99.90;;;;;;4986728;28;20051;-82
2022/01/26 06:23:44;;;;;;;21.70;9.60;;;2.40;99.90;;;;;;4992638;28;20047;-78
2022/01/26 06:26:10;;;;;;;22.67;9.88;;;2.50;99.90;;;;;;5055453;28;20114;-82
2022/01/26 06:28:36;;;;;;;;;;;2.40;99.90;;;;;;5044644;28;20131;-81
2022/01/26 06:31:09;;;;;;;26.67;11.02;;;2.40;99.90;;;;;;4979557;28;20005;-81
2022/01/26 06:33:35;;;;;;;20.88;9.63;;;2.50;99.90;;;;;;4993521;28;20054;-82
2022/01/26 06:36:02;;;;;;;14.93;8.75;;;2.40;99.90;;;;;;5022068;28;20386;-81
2022/01/26 06:38:28;;;;;;;22.33;10.70;;;2.50;99.90;;;;;;4971153;28;20090;-80
2022/01/26 06:40:54;;;;;;;;;;;2.40;99.90;;;;;;4983366;28;20058;-80
2022/01/26 06:43:22;;;;;;;20.67;9.20;;;2.50;99.90;;;;;;4976958;28;19919;-81
2022/01/26 06:45:52;;;;;;;29.10;9.70;;;2.40;99.90;;;;;;4977986;28;20494;-79
2022/01/26 06:50:43;;;;;;;20.08;10.20;;;2.40;99.90;;;;;;4969146;28;20542;-79
2022/01/26 06:53:09;;;;;;;15.20;7.45;;;2.50;99.90;;;;;;4980203;28;20047;-79
2022/01/26 06:55:36;;;;;;;;;;;2.40;99.90;;;;;;4953881;28;20045;-79
2022/01/26 06:58:01;;;;;;;15.98;9.15;;;2.40;99.90;;;;;;4985927;28;19991;-81
2022/01/26 07:00:27;;;;;;;24.38;9.73;;;2.70;99.90;;;;;;4979546;28;20501;-81
2022/01/26 07:02:54;;;;;;;22.70;7.25;;;2.40;99.90;;;;;;4953436;28;20039;-81
2022/01/26 07:05:22;;;;;;;20.98;11.43;;;2.40;99.90;;;;;;4953277;28;20043;-79
2022/01/26 07:07:48;;;;;;;31.83;11.73;;;2.50;99.90;;;;;;4969692;28;20042;-80
2022/01/26 07:10:13;;;;;;;;;;;2.50;99.90;;;;;;4996432;28;20099;-81
2022/01/26 07:12:39;;;;;;;18.05;9.60;;;2.50;99.90;;;;;;4971943;28;19918;-83
2022/01/26 07:23:23;;;;;;;23.13;9.55;;;2.40;99.90;;;;;;4963169;28;20035;-85
2022/01/26 07:25:49;;;;;;;22.30;8.82;;;2.40;99.90;;;;;;5002094;28;20046;-79
2022/01/26 07:28:16;;;;;;;20.00;10.00;;;2.50;99.90;;;;;;4936353;28;20058;-77
2022/01/26 07:31:30;;;;;;;23.20;10.25;;;2.50;99.90;;;;;;5041180;28;20069;-81
2022/01/26 07:34:25;;;;;;;19.67;7.43;;;2.40;99.90;;;;;;5017533;28;20125;-82
2022/01/26 07:36:59;;;;;;;25.13;11.77;;;2.30;99.90;;;;;;4967184;28;20116;-81
2022/01/26 07:39:43;;;;;;;23.52;8.65;;;2.50;99.90;;;;;;4953793;28;20520;-80
2022/01/26 07:42:11;;;;;;;27.02;9.75;;;2.60;99.90;;;;;;4976643;28;20090;-78
2022/01/26 07:44:37;;;;;;;15.82;9.05;;;2.50;99.90;;;;;;4971044;28;20058;-78
2022/01/26 07:47:03;;;;;;;;;;;3.90;99.90;;;;;;5001343;28;20088;-78
2022/01/26 07:49:32;;;;;;;22.23;11.17;;;2.60;99.90;;;;;;4966226;28;19920;-80
2022/01/26 07:51:58;;;;;;;26.83;12.13;;;1.50;99.90;;;;;;4995307;28;20061;-81
2022/01/26 07:54:26;;;;;;;26.17;9.98;;;2.60;99.90;;;;;;4961235;28;20038;-82
2022/01/26 07:56:51;;;;;;;32.88;12.93;;;2.70;99.90;;;;;;4943537;28;20051;-83
2022/01/26 07:59:18;;;;;;;23.92;10.00;;;2.60;99.90;;;;;;4964588;28;20497;-80
2022/01/26 08:01:48;;;;;;;24.60;10.95;;;2.70;99.90;;;;;;4957311;28;20054;-82
2022/01/26 08:04:14;;;;;;;27.10;14.20;;;2.60;99.90;;;;;;5037188;28;20038;-82
2022/01/26 08:06:40;;;;;;;23.42;10.55;;;3.50;99.90;;;;;;4963218;28;20460;-80
2022/01/26 08:09:06;;;;;;;32.10;12.80;;;2.70;99.90;;;;;;4979548;28;20758;-80
2022/01/26 08:11:39;;;;;;;33.83;14.18;;;3.90;99.90;;;;;;4951617;28;20754;-82
2022/01/26 08:14:04;;;;;;;26.17;11.05;;;2.70;99.90;;;;;;5004226;28;20567;-79
2022/01/26 08:16:30;;;;;;;38.83;13.48;;;2.70;99.90;;;;;;4963163;28;20328;-80
2022/01/26 08:18:56;;;;;;;29.85;13.23;;;2.70;99.90;;;;;;4955831;28;20077;-79
2022/01/26 08:21:22;;;;;;;29.70;12.50;;;2.80;99.90;;;;;;4995884;28;20051;-78
2022/01/26 08:23:48;;;;;;;15.05;9.57;;;2.80;99.90;;;;;;4966555;28;20088;-79
2022/01/26 08:26:21;;;;;;;28.63;13.38;;;2.90;99.90;;;;;;4994701;28;20035;-78
2022/01/26 08:28:55;;;;;;;31.67;11.85;;;2.90;99.90;;;;;;4976982;28;20055;-81
2022/01/26 08:31:21;;;;;;;26.17;12.68;;;2.90;99.90;;;;;;4966530;28;20053;-78
2022/01/26 08:33:47;;;;;;;30.55;14.27;;;2.90;99.90;;;;;;4960756;28;20042;-81
2022/01/26 08:36:13;;;;;;;22.25;11.50;;;2.90;99.90;;;;;;5052234;28;20047;-79
2022/01/26 08:38:38;;;;;;;30.65;10.82;;;2.90;99.90;;;;;;4953468;28;20500;-78
2022/01/26 08:41:04;;;;;;;28.50;12.68;;;3.00;99.90;;;;;;4952593;28;20039;-83
2022/01/26 08:43:30;;;;;;;34.05;15.98;;;2.90;99.90;;;;;;5000001;28;20396;-82
2022/01/26 08:45:56;;;;;;;31.48;13.70;;;2.90;99.90;;;;;;5037747;28;20077;-82
2022/01/26 08:48:22;;;;;;;27.65;13.95;;;3.70;99.90;;;;;;4973810;28;20088;-77
2022/01/26 08:51:51;;;;;;;23.98;9.20;;;3.00;99.90;;;;;;5007472;28;20749;-85
2022/01/26 08:54:26;;;;;;;36.03;15.75;;;1.80;99.90;;;;;;4938545;28;20051;-82
2022/01/26 08:59:48;;;;;;;23.65;9.80;;;3.10;99.90;;;;;;5017521;28;20346;-86
2022/01/26 09:02:14;;;;;;;27.52;14.13;;;4.30;99.90;;;;;;5014173;28;20043;-84
2022/01/26 09:04:40;;;;;;;33.95;14.13;;;3.00;99.90;;;;;;4986930;28;20039;-82
2022/01/26 09:07:05;;;;;;;33.60;12.05;;;3.00;99.90;;;;;;4958524;28;20078;-81
2022/01/26 09:09:42;;;;;;;35.10;16.52;;;3.20;99.90;;;;;;4989613;28;20046;-85
2022/01/26 09:12:14;;;;;;;21.20;10.02;;;3.10;99.90;;;;;;4953397;28;20104;-83
2022/01/26 09:14:41;;;;;;;20.17;9.23;;;2.70;99.90;;;;;;4970642;28;20092;-81
2022/01/26 09:17:08;;;;;;;23.73;9.30;;;3.10;99.90;;;;;;4996472;28;20047;-82
2022/01/26 09:19:35;;;;;;;28.27;15.82;;;3.10;99.90;;;;;;4974245;28;20054;-82
2022/01/26 09:22:19;;;;;;;36.58;13.70;;;3.10;99.90;;;;;;4971553;28;20618;-81
2022/01/26 09:24:45;;;;;;;32.30;13.15;;;2.10;99.90;;;;;;4988386;28;20046;-78
2022/01/26 09:27:20;;;;;;;24.00;11.30;;;3.30;99.90;;;;;;4986884;28;20042;-79
2022/01/26 09:29:46;;;;;;;34.63;14.52;;;3.20;99.90;;;;;;5005044;28;20034;-83
2022/01/26 09:32:13;;;;;;;;;;;3.20;99.90;;;;;;4989866;28;20039;-81
2022/01/26 09:34:46;;;;;;;27.33;11.15;;;3.20;99.90;;;;;;4987004;28;19923;-82
2022/01/26 09:37:18;;;;;;;33.40;12.38;;;3.30;99.90;;;;;;5021108;28;20100;-82
2022/01/26 09:39:48;;;;;;;32.50;16.90;;;3.30;99.90;;;;;;4956860;28;20445;-81
2022/01/26 09:42:29;;;;;;;27.50;12.75;;;3.10;99.90;;;;;;5043624;28;20078;-82
2022/01/26 09:45:12;;;;;;;20.75;11.63;;;3.60;99.90;;;;;;5017803;28;20054;-81
2022/01/26 09:47:38;;;;;;;22.90;12.73;;;3.50;99.90;;;;;;4983810;28;20035;-84
2022/01/26 09:50:28;;;;;;;26.92;11.63;;;3.40;99.90;;;;;;4996587;28;20049;-82
2022/01/26 09:52:55;;;;;;;24.05;10.30;;;3.50;99.90;;;;;;4978630;28;20365;-81
2022/01/26 09:55:24;;;;;;;25.02;11.77;;;3.50;99.90;;;;;;4984418;28;20047;-80
2022/01/26 09:57:57;;;;;;;28.67;13.63;;;2.70;99.90;;;;;;4952896;28;20050;-84
2022/01/26 10:00:23;;;;;;;22.58;10.77;;;3.70;99.90;;;;;;4978866;28;20050;-80
2022/01/26 10:03:01;;;;;;;29.05;11.32;;;3.80;99.90;;;;;;5032937;28;20397;-83
2022/01/26 10:05:49;;;;;;;36.83;15.10;;;3.70;99.90;;;;;;4977616;28;20051;-82
2022/01/26 10:15:28;;;;;;;25.30;12.55;;;3.90;99.90;;;;;;4970999;28;20054;-82
2022/01/26 10:17:19;;;;;;;37.92;16.63;;;3.90;99.90;;;;;;4970013;28;20050;-83
2022/01/26 10:19:35;;;;;;;17.75;10.05;;;3.90;99.90;;;;;;4968346;28;20046;-84
2022/01/26 10:22:09;;;;;;;20.23;10.48;;;4.00;99.90;;;;;;4951719;28;20129;-82
2022/01/26 10:24:36;;;;;;;29.33;14.13;;;3.80;99.90;;;;;;4962664;28;20739;-82
2022/01/26 10:27:03;;;;;;;37.28;14.45;;;4.00;99.90;;;;;;5049118;28;20038;-82
2022/01/26 10:29:33;;;;;;;24.05;9.50;;;4.00;99.90;;;;;;4965166;28;20066;-78
2022/01/26 10:32:09;;;;;;;24.38;11.15;;;4.00;99.90;;;;;;5031925;28;20739;-75
2022/01/26 10:34:35;;;;;;;19.88;11.10;;;3.90;99.90;;;;;;4966265;28;20046;-75
2022/01/26 10:37:03;;;;;;;20.73;8.57;;;4.00;99.90;;;;;;5026970;28;20491;-76
2022/01/26 10:39:43;;;;;;;17.77;9.75;;;4.00;99.90;;;;;;4961854;28;20043;-76
2022/01/26 10:42:17;;;;;;;17.95;10.38;;;4.00;99.90;;;;;;4970195;28;20480;-77
2022/01/26 10:45:12;;;;;;;15.68;9.68;;;4.00;99.90;;;;;;4963862;28;20460;-76
2022/01/26 10:47:37;;;;;;;22.85;12.23;;;4.20;99.90;;;;;;4962347;28;20051;-84
2022/01/26 10:53:26;;;;;;;19.13;9.55;;;4.10;99.90;;;;;;4976045;28;20066;-80
2022/01/26 10:55:52;;;;;;;27.38;12.20;;;4.00;99.90;;;;;;4962674;28;20055;-78
2022/01/26 10:58:18;;;;;;;24.48;11.55;;;4.10;99.90;;;;;;4942379;28;20047;-80
2022/01/26 11:00:57;;;;;;;19.52;9.35;;;4.10;99.90;;;;;;5046810;28;20179;-79
2022/01/26 11:04:03;;;;;;;16.45;9.30;;;4.10;99.90;;;;;;4994696;28;20053;-85
2022/01/26 11:06:30;;;;;;;27.90;10.85;;;4.10;99.90;;;;;;5022181;28;20120;-82
2022/01/26 11:16:19;;;;;;;25.80;9.93;;;4.00;99.90;;;;;;5037395;28;20384;-82
2022/01/26 11:19:12;;;;;;;22.70;10.07;;;4.60;99.90;;;;;;4978441;28;20047;-82
2022/01/26 11:26:02;;;;;;;14.20;8.43;;;3.90;99.90;;;;;;5015215;28;20046;-85
2022/01/26 11:28:29;;;;;;;15.98;8.32;;;3.80;99.90;;;;;;5028111;28;20054;-80
2022/01/26 11:31:00;;;;;;;33.60;13.57;;;4.20;99.90;;;;;;4978376;28;20448;-77
2022/01/26 11:33:28;;;;;;;19.13;8.10;;;3.90;99.90;;;;;;4988709;28;20077;-78
2022/01/26 11:35:56;;;;;;;24.98;8.32;;;4.20;99.90;;;;;;5047588;28;20141;-78
2022/01/26 11:38:51;;;;;;;13.70;6.20;;;4.00;99.90;;;;;;5045010;28;20046;-78
2022/01/26 11:46:58;;;;;;;31.52;12.25;;;4.30;99.90;;;;;;5048138;28;20097;-78
2022/01/26 11:49:35;;;;;;;12.93;8.60;;;4.30;99.90;;;;;;4978071;28;20109;-79
2022/01/26 11:52:01;;;;;;;16.85;8.48;;;4.70;99.90;;;;;;4960906;28;20055;-77
2022/01/26 11:54:40;;;;;;;23.05;10.23;;;4.20;99.90;;;;;;4964467;28;20047;-76
2022/01/26 11:57:15;;;;;;;29.67;12.68;;;4.30;99.90;;;;;;4974311;28;20388;-82
2022/01/26 12:00:14;;;;;;;16.25;10.13;;;4.30;99.90;;;;;;4964541;28;20118;-82
2022/01/26 12:02:53;;;;;;;24.38;11.40;;;4.20;99.90;;;;;;4963526;28;20043;-83
2022/01/26 12:05:22;;;;;;;19.25;9.18;;;4.10;99.90;;;;;;4962572;28;20635;-84
2022/01/26 12:08:08;;;;;;;23.55;10.57;;;3.60;99.90;;;;;;4964152;28;20041;-84
2022/01/26 12:10:36;;;;;;;22.00;9.65;;;4.10;99.90;;;;;;4958279;28;20469;-82
2022/01/26 12:13:08;;;;;;;23.85;11.68;;;4.90;99.90;;;;;;4970098;28;20049;-80
2022/01/26 12:16:07;;;;;;;26.60;11.15;;;4.10;99.90;;;;;;4969049;28;20078;-84
2022/01/26 12:19:10;;;;;;;23.88;11.45;;;4.10;99.90;;;;;;4967675;28;20747;-82
2022/01/26 12:33:41;;;;;;;32.25;11.82;;;4.20;99.90;;;;;;5005336;28;20105;-83
2022/01/26 12:36:19;;;;;;;15.48;8.65;;;4.20;99.90;;;;;;4985005;28;20031;-78
2022/01/26 12:38:49;;;;;;;26.83;13.18;;;4.30;99.90;;;;;;4947152;28;20058;-80
2022/01/26 12:43:55;;;;;;;17.90;9.52;;;4.30;99.90;;;;;;5003409;28;20040;-77
2022/01/26 12:46:44;;;;;;;23.17;9.98;;;4.30;99.90;;;;;;4962214;28;20049;-80
2022/01/26 12:49:14;;;;;;;25.80;12.05;;;4.20;99.90;;;;;;4963178;28;20063;-84
2022/01/26 12:51:49;;;;;;;26.48;9.75;;;4.20;99.90;;;;;;4984128;28;20043;-83
2022/01/26 12:54:15;;;;;;;19.45;10.65;;;4.30;99.90;;;;;;4965856;28;20134;-78
2022/01/26 12:56:41;;;;;;;20.27;10.00;;;4.20;99.90;;;;;;4972256;28;20154;-78
2022/01/26 12:59:16;;;;;;;34.35;13.95;;;4.20;99.90;;;;;;4987939;28;20106;-81
2022/01/26 13:01:54;;;;;;;26.60;10.35;;;4.30;99.90;;;;;;4950088;28;20047;-82
2022/01/26 13:04:21;;;;;;;22.13;10.88;;;4.30;99.90;;;;;;4969498;28;20035;-86
2022/01/26 13:06:58;;;;;;;26.25;11.35;;;4.30;99.90;;;;;;4961991;28;20051;-87
2022/01/26 13:09:56;;;;;;;27.20;10.85;;;3.40;99.90;;;;;;4972051;28;20081;-85
2022/01/26 13:12:32;;;;;;;14.35;7.70;;;4.40;99.90;;;;;;4982236;28;20125;-83
2022/01/26 13:15:07;;;;;;;17.60;7.40;;;4.50;99.90;;;;;;4948399;28;20053;-81
2022/01/26 13:17:39;;;;;;;17.45;9.02;;;4.50;99.90;;;;;;4941494;28;20118;-83
2022/01/26 13:26:03;;;;;;;36.97;13.77;;;4.70;99.90;;;;;;4971001;28;20118;-84
2022/01/26 13:34:36;;;;;;;16.48;9.98;;;4.70;99.90;;;;;;4997187;28;20050;-84
2022/01/26 13:42:55;;;;;;;16.73;7.68;;;4.80;99.90;;;;;;4965218;28;20054;-81
2022/01/26 13:50:48;;;;;;;17.77;8.68;;;4.80;99.90;;;;;;5013952;28;20050;-81
2022/01/26 13:53:21;;;;;;;35.30;12.55;;;4.80;99.90;;;;;;4958297;28;20089;-83
2022/01/26 13:56:02;;;;;;;15.38;8.68;;;5.40;99.90;;;;;;4966256;28;20103;-85
2022/01/26 13:58:45;;;;;;;22.25;9.25;;;4.70;99.90;;;;;;4966552;28;20488;-81
2022/01/26 14:01:20;;;;;;;19.92;9.55;;;6.10;99.90;;;;;;5052952;28;20053;-86
2022/01/26 14:03:55;;;;;;;16.27;10.13;;;4.90;99.90;;;;;;4941766;28;20191;-80
2022/01/26 14:06:21;;;;;;;24.13;7.60;;;5.00;99.90;;;;;;4934769;28;20046;-84
2022/01/26 14:08:47;;;;;;;20.85;10.40;;;5.00;99.90;;;;;;4951545;28;20039;-79
2022/01/26 14:11:19;;;;;;;16.92;8.07;;;5.60;99.90;;;;;;4968687;28;20070;-81
2022/01/26 14:13:46;;;;;;;15.50;7.88;;;5.00;99.90;;;;;;4976240;28;20054;-81
2022/01/26 14:16:15;;;;;;;11.55;7.63;;;5.00;99.90;;;;;;4967250;28;20050;-80
2022/01/26 14:19:01;;;;;;;12.88;6.53;;;5.60;99.90;;;;;;4978544;28;20435;-84
2022/01/26 14:24:26;;;;;;;15.85;7.72;;;5.20;99.90;;;;;;5026274;28;20042;-81
2022/01/26 14:26:56;;;;;;;19.15;9.25;;;5.50;99.90;;;;;;4979730;28;20043;-80
2022/01/26 14:40:59;;;;;;;17.02;6.93;;;5.00;99.90;;;;;;4985683;28;20500;-88
2022/01/26 15:51:52;;;;;;;18.73;8.65;;;5.20;99.90;;;;;;5003492;28;20066;-80
2022/01/26 16:08:08;;;;;;;22.20;9.00;;;5.30;99.90;;;;;;4998915;28;20129;-81
2022/01/26 18:25:49;;;;;;;8.70;6.63;;;5.70;99.90;;;;;;4968685;28;20157;-78
2022/01/26 18:50:20;;;;;;;8.23;4.85;;;5.80;99.90;;;;;;4992110;28;21673;-78
2022/01/26 18:52:47;;;;;;;14.43;6.82;;;5.90;99.90;;;;;;4965567;28;20046;-78
2022/01/26 18:55:14;;;;;;;8.48;6.63;;;5.80;99.90;;;;;;4963081;28;20041;-77
2022/01/26 18:57:41;;;;;;;11.43;6.47;;;5.90;99.90;;;;;;4967539;28;20038;-78
2022/01/26 19:00:09;;;;;;;12.05;7.43;;;5.90;99.90;;;;;;4967486;28;20058;-77
2022/01/26 19:02:35;;;;;;;14.65;8.27;;;5.90;99.90;;;;;;5016870;28;20131;-78
2022/01/26 19:05:00;;;;;;;18.00;7.97;;;6.00;99.90;;;;;;4952979;28;20154;-77
2022/01/26 19:07:26;;;;;;;13.50;7.18;;;6.00;99.90;;;;;;4994140;28;20047;-78
2022/01/26 19:09:53;;;;;;;11.82;6.57;;;6.00;99.90;;;;;;5036191;28;20050;-79
2022/01/26 19:12:20;;;;;;;14.98;6.43;;;6.00;99.90;;;;;;4971729;28;20488;-78
2022/01/26 19:14:56;;;;;;;17.33;8.65;;;6.00;99.90;;;;;;4948288;28;20093;-77
2022/01/26 19:17:40;;;;;;;13.18;7.22;;;6.00;99.90;;;;;;4953522;28;20049;-78
2022/01/26 19:25:16;;;;;;;10.38;6.85;;;6.10;99.90;;;;;;4998281;28;20057;-78
2022/01/26 19:28:03;;;;;;;14.02;7.05;;;6.10;99.90;;;;;;4964352;28;20053;-78
2022/01/26 19:46:28;;;;;;;14.52;6.78;;;6.20;99.90;;;;;;4974443;28;20047;-80
2022/01/26 19:52:06;;;;;;;15.15;7.03;;;6.10;99.90;;;;;;4951539;28;20077;-77
2022/01/26 19:54:32;;;;;;;17.17;8.07;;;6.20;99.90;;;;;;4983877;28;20061;-77
2022/01/26 19:56:58;;;;;;;18.15;7.05;;;6.20;99.90;;;;;;5054340;28;20046;-77
2022/01/26 19:59:24;;;;;;;12.68;6.50;;;6.20;99.90;;;;;;4965272;28;20053;-77
2022/01/26 20:01:49;;;;;;;13.27;7.18;;;6.10;99.90;;;;;;4968926;28;20047;-80
2022/01/26 20:04:15;;;;;;;9.95;6.28;;;6.20;99.90;;;;;;4981917;28;20045;-78
2022/01/26 20:06:42;;;;;;;17.50;6.65;;;6.30;99.90;;;;;;4965384;28;20043;-79
2022/01/26 20:09:25;;;;;;;14.93;7.15;;;6.20;99.90;;;;;;4955795;28;20043;-78
2022/01/26 20:15:09;;;;;;;17.00;8.23;;;6.20;99.90;;;;;;4972004;28;20124;-80
2022/01/26 20:17:35;;;;;;;18.58;10.05;;;6.30;99.90;;;;;;4935423;28;20053;-82